Time;durP1;ratioP1;P1;durP2;ratioP2;P2;SDS_P1;SDS_P2;PMS_P1;PMS_P2;Temp;Humidity;BMP_temperature;BMP_pressure;BME280_temperature;BME280_humidity;BME280_pressure;Samples;Min_cycle;Max_cycle;Signal;HPM_P1;HPM_P2
2021/03/21 00:00:31;;;;;;;15.73;8.93;;;3.10;69.60;;;;;;5021105;28;20038;-75
2021/03/21 00:02:57;;;;;;;21.45;9.73;;;3.00;69.60;;;;;;5018665;28;20022;-75
2021/03/21 00:05:23;;;;;;;23.48;11.10;;;3.00;69.80;;;;;;5021996;28;20022;-75
2021/03/21 00:08:00;;;;;;;22.33;11.38;;;3.00;69.90;;;;;;5021123;28;20490;-75
2021/03/21 00:10:29;;;;;;;21.15;11.43;;;3.00;70.10;;;;;;5020670;28;20426;-75
2021/03/21 00:12:55;;;;;;;22.52;10.27;;;3.00;70.00;;;;;;5020760;28;20018;-75
2021/03/21 00:15:21;;;;;;;23.63;11.10;;;2.90;70.10;;;;;;5022192;28;20052;-74
2021/03/21 00:17:48;;;;;;;25.00;11.23;;;2.90;70.20;;;;;;5022157;28;20041;-75
2021/03/21 00:20:15;;;;;;;21.85;11.18;;;2.90;70.40;;;;;;5020841;28;20030;-75
2021/03/21 00:22:41;;;;;;;23.83;10.73;;;2.90;70.50;;;;;;5026090;28;20455;-74
2021/03/21 00:25:13;;;;;;;22.70;10.63;;;3.00;70.60;;;;;;5026208;28;20098;-75
2021/03/21 00:27:39;;;;;;;18.70;10.10;;;3.00;70.60;;;;;;5022441;28;20506;-75
2021/03/21 00:30:08;;;;;;;25.52;12.30;;;3.00;70.60;;;;;;5025479;28;20049;-75
2021/03/21 00:32:34;;;;;;;21.25;10.82;;;3.10;70.50;;;;;;5024085;28;20018;-74
2021/03/21 00:35:00;;;;;;;23.55;11.65;;;3.10;70.20;;;;;;5022899;28;20529;-74
2021/03/21 00:37:25;;;;;;;28.65;12.75;;;3.10;70.10;;;;;;5025008;28;20033;-74
2021/03/21 00:39:51;;;;;;;29.77;12.93;;;3.10;70.10;;;;;;5026211;28;20399;-74
2021/03/21 00:42:17;;;;;;;19.13;10.23;;;3.10;70.10;;;;;;5028870;28;20029;-74
2021/03/21 00:44:42;;;;;;;24.25;11.60;;;3.00;69.90;;;;;;5023536;28;20490;-74
2021/03/21 00:47:08;;;;;;;23.08;11.68;;;3.00;69.90;;;;;;5025733;28;20030;-75
2021/03/21 00:49:34;;;;;;;22.52;11.10;;;3.00;69.90;;;;;;5026574;28;20529;-74
2021/03/21 00:51:59;;;;;;;20.33;11.00;;;2.90;69.90;;;;;;5023451;28;20056;-75
2021/03/21 00:54:25;;;;;;;20.08;10.90;;;2.90;69.90;;;;;;5022896;28;20037;-75
2021/03/21 00:56:51;;;;;;;19.15;10.48;;;2.80;69.90;;;;;;5025928;28;20034;-74
2021/03/21 00:59:16;;;;;;;19.85;10.20;;;2.70;69.90;;;;;;5025666;28;20045;-74
2021/03/21 01:01:42;;;;;;;17.85;9.73;;;2.70;70.10;;;;;;5023388;28;20057;-74
2021/03/21 01:04:08;;;;;;;16.60;9.70;;;2.70;70.20;;;;;;5023074;28;20026;-75
2021/03/21 01:06:34;;;;;;;18.98;9.52;;;2.60;70.20;;;;;;5025812;28;20025;-75
2021/03/21 01:09:04;;;;;;;16.15;9.20;;;2.60;70.30;;;;;;5025813;28;20375;-75
2021/03/21 01:11:32;;;;;;;14.25;8.45;;;2.60;70.30;;;;;;5025247;28;20379;-74
2021/03/21 01:13:58;;;;;;;19.85;9.20;;;2.50;70.30;;;;;;5021110;28;20033;-74
2021/03/21 01:16:30;;;;;;;21.48;8.88;;;2.50;70.30;;;;;;5023160;28;20065;-74
2021/03/21 01:18:57;;;;;;;16.70;9.35;;;2.40;70.40;;;;;;5025404;28;20104;-75
2021/03/21 01:21:28;;;;;;;16.05;8.57;;;2.40;71.10;;;;;;5025150;28;20083;-73
2021/03/21 01:23:55;;;;;;;16.85;8.93;;;2.40;70.50;;;;;;5022713;28;20026;-75
2021/03/21 01:26:23;;;;;;;16.02;9.27;;;2.40;70.60;;;;;;5024897;28;20022;-74
2021/03/21 01:28:49;;;;;;;13.25;7.95;;;2.40;70.70;;;;;;5021344;28;20087;-74
2021/03/21 01:31:18;;;;;;;16.13;8.60;;;2.40;70.60;;;;;;5024959;28;20025;-73
2021/03/21 01:33:44;;;;;;;17.90;8.77;;;2.40;70.70;;;;;;5024159;28;20045;-74
2021/03/21 01:36:16;;;;;;;15.80;8.52;;;2.30;70.60;;;;;;5016151;28;20033;-74
2021/03/21 01:38:43;;;;;;;14.40;8.77;;;2.30;70.60;;;;;;5014503;28;20029;-73
2021/03/21 01:41:17;;;;;;;17.27;9.23;;;2.30;70.60;;;;;;5015533;28;20049;-75
2021/03/21 01:43:43;;;;;;;16.30;9.13;;;2.30;70.70;;;;;;5014287;28;20044;-74
2021/03/21 01:46:18;;;;;;;17.65;9.43;;;2.30;70.70;;;;;;5015568;28;20042;-75
2021/03/21 01:48:53;;;;;;;17.88;9.18;;;2.30;70.60;;;;;;5015133;28;20084;-74
2021/03/21 01:51:30;;;;;;;16.38;8.95;;;2.30;70.60;;;;;;5015015;28;20480;-74
2021/03/21 01:53:58;;;;;;;16.30;8.98;;;2.20;70.60;;;;;;5015325;28;20049;-74
2021/03/21 01:56:27;;;;;;;18.77;9.52;;;2.20;70.50;;;;;;5015151;28;20029;-74
2021/03/21 01:59:09;;;;;;;15.10;8.73;;;2.20;70.60;;;;;;5015132;28;20137;-74
2021/03/21 02:01:35;;;;;;;17.17;9.68;;;2.20;70.60;;;;;;5015657;28;20044;-74
2021/03/21 02:04:01;;;;;;;14.63;8.93;;;2.20;70.60;;;;;;5015089;28;20306;-74
2021/03/21 02:06:34;;;;;;;18.75;9.00;;;2.20;70.70;;;;;;5014798;28;20038;-74
2021/03/21 02:09:11;;;;;;;16.63;9.13;;;2.20;70.90;;;;;;5014940;28;20364;-74
2021/03/21 02:11:52;;;;;;;17.58;9.15;;;2.20;70.80;;;;;;5015028;28;20030;-74
2021/03/21 02:14:36;;;;;;;18.13;9.43;;;2.20;70.90;;;;;;5014937;28;20026;-75
2021/03/21 02:17:18;;;;;;;14.33;8.67;;;2.30;71.00;;;;;;5014530;28;20092;-74
2021/03/21 02:20:17;;;;;;;15.18;8.80;;;2.40;70.90;;;;;;5013819;28;20282;-74
2021/03/21 02:22:48;;;;;;;15.70;8.35;;;2.40;70.80;;;;;;5015116;28;20434;-74
2021/03/21 02:25:31;;;;;;;17.42;8.38;;;2.50;70.80;;;;;;5014938;28;20026;-74
2021/03/21 02:28:05;;;;;;;14.32;8.20;;;2.50;70.60;;;;;;5014792;28;20076;-74
2021/03/21 02:30:40;;;;;;;15.60;8.63;;;2.60;70.70;;;;;;5013386;28;20041;-75
2021/03/21 02:33:09;;;;;;;16.60;9.00;;;2.70;70.60;;;;;;5014974;28;20034;-74
2021/03/21 02:36:03;;;;;;;15.63;8.57;;;2.80;70.50;;;;;;5015088;28;20034;-75
2021/03/21 02:38:34;;;;;;;18.55;8.98;;;2.90;70.30;;;;;;5020735;28;20080;-74
2021/03/21 02:41:36;;;;;;;15.65;8.85;;;2.90;70.00;;;;;;5023040;28;20107;-75
2021/03/21 02:44:16;;;;;;;15.88;8.77;;;3.00;69.80;;;;;;5021971;28;20486;-75
2021/03/21 02:46:56;;;;;;;13.57;8.77;;;3.10;69.70;;;;;;5023673;28;20052;-75
2021/03/21 02:49:37;;;;;;;13.48;8.05;;;3.10;69.40;;;;;;5023574;28;20536;-75
2021/03/21 02:52:06;;;;;;;15.55;8.75;;;3.10;69.20;;;;;;5023278;28;20958;-75
2021/03/21 02:54:35;;;;;;;15.68;9.10;;;3.10;68.90;;;;;;5020704;28;20029;-75
2021/03/21 02:57:09;;;;;;;15.25;8.70;;;3.10;68.80;;;;;;5020840;28;20156;-76
2021/03/21 02:59:44;;;;;;;15.00;8.57;;;3.10;68.60;;;;;;5020671;28;20502;-75
2021/03/21 03:02:21;;;;;;;14.63;8.15;;;3.10;68.50;;;;;;5019565;28;20022;-75
2021/03/21 03:04:57;;;;;;;16.65;8.98;;;3.10;68.50;;;;;;5021559;28;20480;-74
2021/03/21 03:08:00;;;;;;;13.65;8.13;;;3.10;68.30;;;;;;5021452;28;20022;-75
2021/03/21 03:10:37;;;;;;;13.80;8.00;;;3.00;68.20;;;;;;5003323;28;20030;-75
2021/03/21 03:13:43;;;;;;;14.32;8.48;;;2.90;68.20;;;;;;5023907;28;21057;-75
2021/03/21 03:16:35;;;;;;;15.93;8.65;;;2.90;68.30;;;;;;5018588;28;20399;-75
2021/03/21 03:19:32;;;;;;;13.38;8.45;;;2.90;68.30;;;;;;5021397;28;20463;-76
2021/03/21 03:22:22;;;;;;;17.05;8.27;;;2.80;68.40;;;;;;5021574;28;20060;-74
2021/03/21 03:24:57;;;;;;;15.45;8.82;;;2.70;68.30;;;;;;5023642;28;20418;-74
2021/03/21 03:27:50;;;;;;;18.10;9.52;;;2.60;68.30;;;;;;5021973;28;20298;-74
2021/03/21 03:30:20;;;;;;;16.17;9.52;;;2.50;68.40;;;;;;5020524;28;20026;-74
2021/03/21 03:32:46;;;;;;;16.00;8.23;;;2.40;68.50;;;;;;5021072;28;20018;-74
2021/03/21 03:35:19;;;;;;;14.30;8.77;;;2.30;68.70;;;;;;5022519;28;20029;-75
2021/03/21 03:37:45;;;;;;;18.58;8.27;;;2.30;68.90;;;;;;5022986;28;20044;-75
2021/03/21 03:40:12;;;;;;;16.15;8.77;;;2.20;69.00;;;;;;5021376;28;20527;-75
2021/03/21 03:42:47;;;;;;;17.65;9.25;;;2.10;69.10;;;;;;5021625;28;20026;-75
2021/03/21 03:45:44;;;;;;;21.27;10.55;;;2.10;69.30;;;;;;5051483;28;20388;-75
2021/03/21 03:48:24;;;;;;;23.35;11.07;;;2.00;69.40;;;;;;5018817;28;20375;-74
2021/03/21 03:50:59;;;;;;;21.60;10.45;;;1.90;69.50;;;;;;5020721;28;20033;-75
2021/03/21 03:54:01;;;;;;;21.98;9.95;;;1.90;69.60;;;;;;5023335;28;20033;-75
2021/03/21 03:57:07;;;;;;;21.52;9.73;;;1.80;69.80;;;;;;5022771;28;20120;-75
2021/03/21 03:59:46;;;;;;;22.33;9.93;;;1.80;69.90;;;;;;5019392;28;20475;-75
2021/03/21 04:02:23;;;;;;;26.80;11.90;;;1.80;70.00;;;;;;5018752;28;20029;-75
2021/03/21 04:04:48;;;;;;;28.25;12.30;;;1.70;70.10;;;;;;5021026;28;20022;-73
2021/03/21 04:07:27;;;;;;;35.55;15.40;;;1.70;70.20;;;;;;5022161;28;20029;-75
2021/03/21 04:09:57;;;;;;;38.03;16.27;;;1.70;70.40;;;;;;5019269;28;20088;-74
2021/03/21 04:12:38;;;;;;;43.00;18.27;;;1.70;70.50;;;;;;5020930;28;20341;-74
2021/03/21 04:15:09;;;;;;;43.38;18.00;;;1.60;70.60;;;;;;5022043;28;20037;-76
2021/03/21 04:17:43;;;;;;;39.65;16.95;;;1.60;70.70;;;;;;5021600;28;20034;-75
2021/03/21 04:20:25;;;;;;;39.53;16.27;;;1.60;70.80;;;;;;5018090;28;20105;-74
2021/03/21 04:23:03;;;;;;;34.65;15.63;;;1.60;71.00;;;;;;5018484;28;20104;-76
2021/03/21 04:25:36;;;;;;;31.90;15.75;;;1.70;71.10;;;;;;5017691;28;20026;-75
2021/03/21 04:28:13;;;;;;;29.80;14.35;;;1.60;71.10;;;;;;5021169;28;20370;-76
2021/03/21 04:30:45;;;;;;;28.45;13.23;;;1.60;71.20;;;;;;5008602;28;20465;-74
2021/03/21 04:33:16;;;;;;;27.58;13.55;;;1.70;71.30;;;;;;4993474;28;20413;-74
2021/03/21 04:36:02;;;;;;;28.58;13.10;;;1.70;71.40;;;;;;5024775;28;20030;-74
2021/03/21 04:38:34;;;;;;;38.10;16.08;;;1.70;71.50;;;;;;4993474;28;20042;-74
2021/03/21 04:41:02;;;;;;;31.17;13.02;;;1.70;71.40;;;;;;4993107;28;20484;-75
2021/03/21 04:43:47;;;;;;;34.08;15.20;;;1.80;71.50;;;;;;5024741;28;20034;-75
2021/03/21 04:46:23;;;;;;;36.42;15.77;;;1.80;71.50;;;;;;4993206;28;20026;-75
2021/03/21 04:48:54;;;;;;;36.28;14.60;;;1.80;71.60;;;;;;4993273;28;20477;-75
2021/03/21 04:51:35;;;;;;;34.88;14.45;;;1.80;71.50;;;;;;4993243;28;20026;-74
2021/03/21 04:54:22;;;;;;;30.27;13.85;;;1.90;71.60;;;;;;5012486;28;20038;-75
2021/03/21 04:57:16;;;;;;;28.25;13.20;;;1.90;71.60;;;;;;5012992;28;20033;-74
2021/03/21 04:59:44;;;;;;;24.45;11.18;;;2.00;71.60;;;;;;5012808;28;20050;-74
2021/03/21 05:02:11;;;;;;;28.92;12.70;;;2.00;71.40;;;;;;5012918;28;20118;-74
2021/03/21 05:04:46;;;;;;;20.50;10.52;;;2.00;71.40;;;;;;5013028;28;20109;-75
2021/03/21 05:07:32;;;;;;;22.77;10.80;;;2.00;71.50;;;;;;5015390;28;20044;-76
2021/03/21 05:10:21;;;;;;;18.40;9.27;;;2.10;71.60;;;;;;5023133;28;20028;-75
2021/03/21 05:13:16;;;;;;;17.77;8.95;;;2.20;71.60;;;;;;5022939;28;20116;-75
2021/03/21 05:16:03;;;;;;;14.93;8.73;;;2.20;71.50;;;;;;5022654;28;20029;-75
2021/03/21 05:18:52;;;;;;;17.10;8.73;;;2.30;71.30;;;;;;5024122;28;20026;-75
2021/03/21 05:22:00;;;;;;;16.27;8.80;;;2.30;71.00;;;;;;5025536;28;20029;-75
2021/03/21 05:24:41;;;;;;;15.77;8.05;;;2.30;71.10;;;;;;5021978;28;20038;-74
2021/03/21 05:27:17;;;;;;;15.15;9.13;;;2.40;71.20;;;;;;5023732;28;20030;-74
2021/03/21 05:29:54;;;;;;;15.48;9.30;;;2.50;71.30;;;;;;5022707;28;20037;-74
2021/03/21 05:32:22;;;;;;;16.02;8.38;;;2.50;71.10;;;;;;5023233;28;20036;-74
2021/03/21 05:34:50;;;;;;;13.85;8.20;;;2.60;70.90;;;;;;5024609;28;20075;-76
2021/03/21 05:37:43;;;;;;;17.35;9.98;;;2.70;70.80;;;;;;5022780;28;20484;-75
2021/03/21 05:40:18;;;;;;;13.98;8.93;;;2.80;70.70;;;;;;5019364;28;20064;-75
2021/03/21 05:43:05;;;;;;;15.15;8.57;;;2.80;70.30;;;;;;5022739;28;20416;-75
2021/03/21 05:45:56;;;;;;;15.90;8.40;;;2.90;70.30;;;;;;5024484;28;20022;-75
2021/03/21 05:48:53;;;;;;;13.65;8.38;;;3.00;70.00;;;;;;4994912;28;20386;-75
2021/03/21 05:51:40;;;;;;;13.88;7.90;;;3.00;69.70;;;;;;5020684;28;20468;-75
2021/03/21 05:54:31;;;;;;;12.50;7.97;;;3.10;69.60;;;;;;5022746;28;20490;-75
2021/03/21 05:57:28;;;;;;;13.02;8.05;;;3.20;69.20;;;;;;5004300;28;20423;-76
2021/03/21 05:59:59;;;;;;;12.13;7.45;;;3.30;69.10;;;;;;5024476;28;20072;-76
2021/03/21 06:02:46;;;;;;;14.52;7.75;;;3.40;69.20;;;;;;5015752;28;20028;-70
2021/03/21 06:05:50;;;;;;;15.65;7.95;;;3.50;68.90;;;;;;5017583;28;20025;-71
2021/03/21 06:08:29;;;;;;;13.00;8.18;;;3.60;68.50;;;;;;5006376;28;20026;-70
2021/03/21 06:11:19;;;;;;;12.80;7.43;;;3.60;68.00;;;;;;5004184;28;20033;-69
2021/03/21 06:14:10;;;;;;;12.68;7.53;;;3.70;67.80;;;;;;5007555;28;20041;-70
2021/03/21 06:17:12;;;;;;;14.80;7.55;;;3.70;67.60;;;;;;5007979;28;20398;-70
2021/03/21 06:20:12;;;;;;;13.45;7.07;;;3.80;67.40;;;;;;5018547;28;20057;-71
2021/03/21 06:22:50;;;;;;;15.05;7.00;;;3.90;67.40;;;;;;5034264;28;20030;-71
2021/03/21 06:25:36;;;;;;;10.80;6.75;;;4.00;66.80;;;;;;5034578;28;20029;-75
2021/03/21 06:28:48;;;;;;;13.40;7.18;;;4.00;66.70;;;;;;5034170;28;20434;-71
2021/03/21 06:31:51;;;;;;;13.13;7.10;;;4.10;66.20;;;;;;5034387;28;20116;-71
2021/03/21 06:34:26;;;;;;;11.25;7.10;;;4.20;65.90;;;;;;5034277;28;20106;-71
2021/03/21 06:36:57;;;;;;;10.88;6.60;;;4.20;65.80;;;;;;5034125;28;20037;-70
2021/03/21 06:39:48;;;;;;;12.98;7.57;;;4.30;65.60;;;;;;5034065;28;20040;-70
2021/03/21 06:42:31;;;;;;;11.90;6.80;;;4.40;65.00;;;;;;5032583;28;20032;-71
2021/03/21 06:45:34;;;;;;;10.38;6.13;;;4.50;64.70;;;;;;5034405;28;20083;-71
2021/03/21 06:48:18;;;;;;;11.02;6.30;;;4.50;64.00;;;;;;5022461;28;20081;-70
2021/03/21 06:51:18;;;;;;;12.05;6.63;;;4.60;64.10;;;;;;5014052;28;20117;-72
2021/03/21 06:54:12;;;;;;;8.77;5.75;;;4.60;64.00;;;;;;5013805;28;20060;-71
2021/03/21 06:57:02;;;;;;;12.45;6.57;;;4.70;63.10;;;;;;4994393;28;20054;-72
2021/03/21 07:00:06;;;;;;;9.43;6.10;;;4.80;62.90;;;;;;5013595;28;20057;-71
2021/03/21 07:03:01;;;;;;;8.73;5.47;;;4.80;62.60;;;;;;5006583;28;20038;-71
2021/03/21 07:05:58;;;;;;;9.70;5.97;;;4.80;62.00;;;;;;5012352;28;20022;-71
2021/03/21 07:08:38;;;;;;;10.38;6.65;;;4.90;61.80;;;;;;5005325;28;20438;-71
2021/03/21 07:11:25;;;;;;;10.10;6.22;;;4.90;61.90;;;;;;5023160;28;20033;-71
2021/03/21 07:14:20;;;;;;;11.27;6.05;;;5.00;61.80;;;;;;5033400;28;20057;-70
2021/03/21 07:17:23;;;;;;;10.95;6.80;;;5.10;61.70;;;;;;5032987;28;20052;-71
2021/03/21 07:19:51;;;;;;;10.25;6.72;;;5.30;61.50;;;;;;5033452;28;20080;-72
2021/03/21 07:22:36;;;;;;;8.88;5.45;;;5.40;61.00;;;;;;5033377;28;20051;-71
2021/03/21 07:25:30;;;;;;;8.80;5.80;;;5.50;60.50;;;;;;5033259;28;20044;-71
2021/03/21 07:28:19;;;;;;;9.75;5.75;;;5.60;59.80;;;;;;5033235;28;20021;-70
2021/03/21 07:31:22;;;;;;;9.98;5.68;;;5.70;59.30;;;;;;5021451;28;20022;-70
2021/03/21 07:34:09;;;;;;;7.10;5.47;;;5.80;59.00;;;;;;5021846;28;20030;-72
2021/03/21 07:36:59;;;;;;;8.35;5.53;;;5.80;58.60;;;;;;5021901;28;20084;-72
2021/03/21 07:39:53;;;;;;;9.15;6.60;;;6.00;58.00;;;;;;5018843;28;20053;-72
2021/03/21 07:42:37;;;;;;;10.05;5.97;;;6.10;57.80;;;;;;5022329;28;20067;-71
2021/03/21 07:45:28;;;;;;;7.83;5.63;;;6.20;57.60;;;;;;5018757;28;20104;-70
2021/03/21 07:48:17;;;;;;;10.57;6.18;;;6.50;57.40;;;;;;5021518;28;20464;-71
2021/03/21 07:51:12;;;;;;;11.10;6.22;;;6.80;57.00;;;;;;5022700;28;20087;-70
2021/03/21 07:54:31;;;;;;;7.38;4.97;;;7.10;56.10;;;;;;5022069;28;20044;-71
2021/03/21 07:57:05;;;;;;;7.15;4.95;;;7.30;54.80;;;;;;5013506;28;20108;-70
2021/03/21 07:59:34;;;;;;;9.85;5.72;;;7.60;54.10;;;;;;5021665;28;20053;-71
2021/03/21 08:02:01;;;;;;;8.40;5.10;;;7.80;53.00;;;;;;5020738;28;20462;-71
2021/03/21 08:04:46;;;;;;;6.93;4.78;;;7.80;51.60;;;;;;5022054;28;20036;-73
2021/03/21 08:07:25;;;;;;;6.10;3.88;;;7.90;50.50;;;;;;5021224;28;20069;-71
2021/03/21 08:09:51;;;;;;;8.50;4.75;;;8.00;49.80;;;;;;5020518;28;20041;-72
2021/03/21 08:12:20;;;;;;;6.25;4.63;;;8.20;50.30;;;;;;5018485;28;20349;-71
2021/03/21 08:14:56;;;;;;;5.82;4.03;;;8.60;49.50;;;;;;5013128;28;20022;-71
2021/03/21 08:17:46;;;;;;;6.53;4.15;;;8.80;48.30;;;;;;5021243;28;20026;-72
2021/03/21 08:20:40;;;;;;;7.70;4.25;;;9.20;47.90;;;;;;5032677;28;20490;-72
2021/03/21 08:23:08;;;;;;;6.13;4.20;;;9.50;47.40;;;;;;5032625;28;20030;-70
2021/03/21 08:25:36;;;;;;;7.70;4.38;;;9.50;46.50;;;;;;5031032;28;20079;-71
2021/03/21 08:28:02;;;;;;;6.68;4.70;;;9.60;46.40;;;;;;5032632;28;20367;-71
2021/03/21 08:30:43;;;;;;;8.90;5.60;;;9.70;46.30;;;;;;5032643;28;20053;-71
2021/03/21 08:33:11;;;;;;;6.90;4.90;;;9.70;45.10;;;;;;5032935;28;20421;-72
2021/03/21 08:35:37;;;;;;;7.82;4.97;;;9.50;44.80;;;;;;5032846;28;20060;-71
2021/03/21 08:38:20;;;;;;;7.70;5.10;;;9.10;44.80;;;;;;5014141;28;20054;-71
2021/03/21 08:40:46;;;;;;;8.95;5.05;;;8.70;44.80;;;;;;5012853;28;20048;-71
2021/03/21 08:43:26;;;;;;;9.38;5.32;;;8.30;45.50;;;;;;5015884;28;20415;-71
2021/03/21 08:46:08;;;;;;;8.95;5.60;;;8.10;46.20;;;;;;5016379;28;20105;-70
2021/03/21 08:48:39;;;;;;;9.85;5.47;;;8.10;46.50;;;;;;5025035;28;20021;-70
2021/03/21 08:51:11;;;;;;;9.27;5.57;;;8.10;46.90;;;;;;5032981;28;20022;-71
2021/03/21 08:53:53;;;;;;;8.32;5.30;;;8.20;47.60;;;;;;5022119;28;20087;-71
2021/03/21 08:56:20;;;;;;;7.35;5.22;;;8.40;47.70;;;;;;5057465;28;20475;-72
2021/03/21 08:58:51;;;;;;;8.30;5.30;;;8.60;47.70;;;;;;5025515;28;20439;-72
2021/03/21 09:01:23;;;;;;;8.70;5.50;;;9.60;48.90;;;;;;5026191;28;20087;-72
2021/03/21 09:03:51;;;;;;;7.70;5.60;;;11.10;47.50;;;;;;5024470;28;20403;-73
2021/03/21 09:06:36;;;;;;;8.90;6.00;;;12.50;46.30;;;;;;5023670;28;20025;-71
2021/03/21 09:09:38;;;;;;;7.20;5.05;;;13.10;43.60;;;;;;5025642;28;20025;-71
2021/03/21 09:12:22;;;;;;;11.13;6.00;;;13.60;42.70;;;;;;5012410;28;20080;-71
2021/03/21 09:14:49;;;;;;;9.23;5.85;;;13.50;41.30;;;;;;5022545;28;20034;-72
2021/03/21 09:17:23;;;;;;;7.63;5.95;;;12.90;41.30;;;;;;5026382;28;20119;-71
2021/03/21 09:19:55;;;;;;;9.45;5.35;;;13.00;42.70;;;;;;5035767;28;20037;-72
2021/03/21 09:22:39;;;;;;;7.60;5.60;;;13.90;42.10;;;;;;5034397;28;20044;-71
2021/03/21 09:25:29;;;;;;;8.90;5.80;;;14.80;40.40;;;;;;5032030;28;20479;-72
2021/03/21 09:27:57;;;;;;;7.18;5.40;;;15.80;39.70;;;;;;5022448;28;20037;-72
2021/03/21 09:30:31;;;;;;;6.97;5.35;;;16.60;39.50;;;;;;5014610;28;20541;-71
2021/03/21 09:32:59;;;;;;;;;;;17.20;38.10;;;;;;5020697;28;20026;-70
2021/03/21 09:35:42;;;;;;;7.15;5.90;;;17.20;37.50;;;;;;5025150;28;19917;-73
2021/03/21 09:38:18;;;;;;;6.95;5.50;;;17.10;37.00;;;;;;5023867;28;20044;-71
2021/03/21 09:40:58;;;;;;;8.63;6.30;;;17.80;36.60;;;;;;5022966;28;20482;-70
2021/03/21 09:43:33;;;;;;;7.03;5.10;;;18.70;35.30;;;;;;5034799;28;20502;-70
2021/03/21 09:46:24;;;;;;;7.93;5.82;;;18.70;33.30;;;;;;5034678;28;20364;-70
2021/03/21 09:48:58;;;;;;;6.88;5.57;;;18.30;33.40;;;;;;5025922;28;20056;-72
2021/03/21 09:51:31;;;;;;;;;;;18.70;32.70;;;;;;5035205;28;20037;-70
2021/03/21 09:54:29;;;;;;;8.52;6.25;;;18.50;33.00;;;;;;5034537;28;19966;-71
2021/03/21 09:57:01;;;;;;;7.25;5.78;;;17.30;31.80;;;;;;4991676;28;20061;-71
2021/03/21 09:59:46;;;;;;;6.70;5.25;;;15.80;33.00;;;;;;5020385;28;20053;-72
2021/03/21 10:02:15;;;;;;;9.25;5.85;;;14.80;33.90;;;;;;5021477;28;20025;-71
2021/03/21 10:04:47;;;;;;;6.72;5.47;;;14.60;35.10;;;;;;5025354;28;20041;-71
2021/03/21 10:07:54;;;;;;;7.13;5.40;;;14.30;35.10;;;;;;5022486;28;20036;-71
2021/03/21 10:10:25;;;;;;;8.05;5.55;;;13.70;35.40;;;;;;5000061;28;20045;-71
2021/03/21 10:12:51;;;;;;;11.38;6.05;;;14.00;36.20;;;;;;5022973;28;20034;-72
2021/03/21 10:15:25;;;;;;;6.93;5.22;;;14.00;35.40;;;;;;5024457;28;20025;-70
2021/03/21 10:18:00;;;;;;;7.65;5.43;;;14.20;35.40;;;;;;5024203;28;20412;-71
2021/03/21 10:20:53;;;;;;;7.85;5.35;;;15.30;35.70;;;;;;5021326;28;20033;-76
2021/03/21 10:23:19;;;;;;;9.52;5.85;;;16.40;34.20;;;;;;5020042;28;20029;-72
2021/03/21 10:25:44;;;;;;;7.40;5.85;;;16.50;33.30;;;;;;5023212;28;20336;-71
2021/03/21 10:28:35;;;;;;;6.70;5.20;;;16.00;32.90;;;;;;5024147;28;20143;-71
2021/03/21 10:31:22;;;;;;;6.93;5.45;;;15.30;32.50;;;;;;5023943;28;20344;-71
2021/03/21 10:34:08;;;;;;;8.77;6.50;;;14.40;32.90;;;;;;5022115;28;20414;-71
2021/03/21 10:36:40;;;;;;;6.68;4.93;;;14.00;33.90;;;;;;5012792;28;20057;-72
2021/03/21 10:39:11;;;;;;;6.72;5.32;;;14.40;34.30;;;;;;5022870;28;20058;-72
2021/03/21 10:41:58;;;;;;;7.53;5.57;;;14.90;33.90;;;;;;5021831;28;20372;-71
2021/03/21 10:44:35;;;;;;;7.47;6.07;;;15.60;33.10;;;;;;5020168;28;20487;-70
2021/03/21 10:47:03;;;;;;;6.90;5.78;;;16.20;32.60;;;;;;5019863;28;20026;-71
2021/03/21 10:49:54;;;;;;;9.45;6.57;;;16.80;32.00;;;;;;5022506;28;20017;-70
2021/03/21 10:52:35;;;;;;;7.50;6.25;;;17.40;31.40;;;;;;5019328;28;20018;-72
2021/03/21 10:55:18;;;;;;;7.43;5.90;;;17.90;30.40;;;;;;5019319;28;20025;-71
2021/03/21 10:57:56;;;;;;;9.77;6.82;;;18.10;30.00;;;;;;5011961;28;20073;-71
2021/03/21 11:00:32;;;;;;;9.77;7.72;;;18.60;30.20;;;;;;5010946;28;20046;-70
2021/03/21 11:03:00;;;;;;;11.10;7.20;;;19.30;29.90;;;;;;5014359;28;20380;-70
2021/03/21 11:05:29;;;;;;;7.93;6.82;;;19.90;29.60;;;;;;5013463;28;20100;-71
2021/03/21 11:08:05;;;;;;;8.63;7.13;;;20.20;28.40;;;;;;5013859;28;20030;-71
2021/03/21 11:10:34;;;;;;;9.35;6.80;;;19.70;27.80;;;;;;5013874;28;20033;-71
2021/03/21 11:12:59;;;;;;;8.65;6.65;;;19.30;28.20;;;;;;5009144;28;20033;-71
2021/03/21 11:15:29;;;;;;;8.02;6.43;;;18.70;27.90;;;;;;5018814;28;20025;-72
2021/03/21 11:18:00;;;;;;;8.80;6.82;;;18.50;28.60;;;;;;5015546;28;20038;-71
2021/03/21 11:20:31;;;;;;;9.73;7.47;;;18.80;28.60;;;;;;5007417;28;20066;-71
2021/03/21 11:22:57;;;;;;;10.85;8.23;;;19.00;28.70;;;;;;5008177;28;20030;-71
2021/03/21 11:25:34;;;;;;;10.95;7.93;;;18.60;27.90;;;;;;5013698;28;20153;-71
2021/03/21 11:28:00;;;;;;;9.82;7.70;;;17.30;27.80;;;;;;5002594;28;20395;-71
2021/03/21 11:30:27;;;;;;;12.52;9.10;;;16.60;28.70;;;;;;4993739;28;20034;-72
2021/03/21 11:32:54;;;;;;;16.50;9.93;;;16.00;29.20;;;;;;4993754;28;20026;-70
2021/03/21 11:35:27;;;;;;;12.40;8.93;;;16.10;29.90;;;;;;5006336;28;20515;-71
2021/03/21 11:37:55;;;;;;;17.27;7.95;;;16.30;29.50;;;;;;5008692;28;20065;-71
2021/03/21 11:40:23;;;;;;;10.00;7.53;;;16.80;30.60;;;;;;4996323;28;20027;-72
2021/03/21 11:43:19;;;;;;;11.88;7.75;;;17.60;29.60;;;;;;4993486;28;20034;-72
2021/03/21 11:45:46;;;;;;;9.55;8.05;;;17.60;29.00;;;;;;5000857;28;20479;-71
2021/03/21 11:48:32;;;;;;;10.07;8.55;;;17.90;29.30;;;;;;5023874;28;20586;-72
2021/03/21 11:50:59;;;;;;;10.65;8.73;;;18.30;28.50;;;;;;5013806;28;20152;-72
2021/03/21 11:53:35;;;;;;;8.73;7.13;;;18.70;28.50;;;;;;5021049;28;20034;-71
2021/03/21 11:56:45;;;;;;;8.98;7.40;;;19.00;27.60;;;;;;5027695;28;20044;-71
2021/03/21 11:59:16;;;;;;;9.98;7.65;;;19.10;27.50;;;;;;5027416;28;20041;-71
2021/03/21 12:01:48;;;;;;;10.75;7.88;;;19.50;27.80;;;;;;5011595;28;20025;-72
2021/03/21 12:04:27;;;;;;;11.50;9.13;;;19.80;27.60;;;;;;5025074;28;20079;-71
2021/03/21 12:06:55;;;;;;;10.93;8.43;;;20.10;27.30;;;;;;5008111;28;20041;-71
2021/03/21 12:09:34;;;;;;;8.95;7.65;;;20.10;27.30;;;;;;5032922;28;20032;-70
2021/03/21 12:12:04;;;;;;;13.13;9.27;;;20.10;26.80;;;;;;5012693;28;20037;-70
2021/03/21 12:14:32;;;;;;;10.23;8.43;;;19.80;27.00;;;;;;5023236;28;20026;-72
2021/03/21 12:17:24;;;;;;;9.60;7.97;;;19.80;27.10;;;;;;5015875;28;20030;-72
2021/03/21 12:19:55;;;;;;;10.38;7.82;;;19.80;26.90;;;;;;5013882;28;20041;-71
2021/03/21 12:22:36;;;;;;;8.45;7.32;;;19.80;26.90;;;;;;5017069;28;20077;-72
2021/03/21 12:25:23;;;;;;;9.63;7.22;;;19.70;26.60;;;;;;5024303;28;20030;-72
2021/03/21 12:27:53;;;;;;;8.50;7.22;;;19.10;26.60;;;;;;5036267;28;20030;-72
2021/03/21 12:30:47;;;;;;;13.98;8.27;;;18.10;27.50;;;;;;5021340;28;20056;-71
2021/03/21 12:33:12;;;;;;;13.57;10.32;;;17.80;27.90;;;;;;5016997;28;20026;-71
2021/03/21 12:35:41;;;;;;;11.60;8.85;;;18.20;28.40;;;;;;5016700;28;20025;-71
2021/03/21 12:38:31;;;;;;;10.05;8.35;;;18.30;28.10;;;;;;5027823;28;20084;-71
2021/03/21 12:40:58;;;;;;;13.20;9.38;;;17.80;27.60;;;;;;5037092;28;20029;-71
2021/03/21 12:43:30;;;;;;;15.98;11.57;;;16.70;28.00;;;;;;5030733;28;20105;-71
2021/03/21 12:46:09;;;;;;;10.85;8.23;;;16.20;29.20;;;;;;5016447;28;20472;-71
2021/03/21 12:49:03;;;;;;;12.52;8.40;;;17.00;29.70;;;;;;5016470;28;20025;-71
2021/03/21 12:51:33;;;;;;;10.25;8.73;;;18.10;29.10;;;;;;5016529;28;20105;-71
2021/03/21 12:54:00;;;;;;;10.40;8.30;;;18.80;28.70;;;;;;5016559;28;20114;-72
2021/03/21 12:56:26;;;;;;;13.90;9.52;;;19.30;28.40;;;;;;5016484;28;20076;-72
2021/03/21 12:58:52;;;;;;;10.88;8.65;;;19.40;28.00;;;;;;5015951;28;20475;-71
2021/03/21 13:01:20;;;;;;;13.70;9.45;;;18.30;27.60;;;;;;5016236;28;20022;-71
2021/03/21 13:03:46;;;;;;;10.70;7.88;;;16.90;28.20;;;;;;5016030;28;20378;-71
2021/03/21 13:06:12;;;;;;;11.82;9.65;;;15.80;28.80;;;;;;5033139;28;20469;-70
2021/03/21 13:08:37;;;;;;;12.30;8.77;;;15.30;29.70;;;;;;5024401;28;20114;-72
2021/03/21 13:11:07;;;;;;;12.10;8.77;;;15.00;30.00;;;;;;5016293;28;20053;-72
2021/03/21 13:13:34;;;;;;;14.18;8.95;;;14.70;30.50;;;;;;5016322;28;20030;-74
2021/03/21 13:16:00;;;;;;;11.38;8.27;;;15.00;30.80;;;;;;5013996;28;20038;-73
2021/03/21 13:18:25;;;;;;;11.80;8.95;;;15.70;30.90;;;;;;5014807;28;20104;-71
2021/03/21 13:20:56;;;;;;;10.18;8.20;;;16.30;30.60;;;;;;5014325;28;20120;-71
2021/03/21 13:23:23;;;;;;;11.07;8.23;;;17.00;30.00;;;;;;5015479;28;20033;-71
2021/03/21 13:25:49;;;;;;;10.40;8.18;;;16.90;29.20;;;;;;5032140;28;20120;-71
2021/03/21 13:28:15;;;;;;;14.63;9.10;;;16.40;29.10;;;;;;5024096;28;20029;-71
2021/03/21 13:30:46;;;;;;;10.30;8.25;;;16.00;29.70;;;;;;5015694;28;20030;-71
2021/03/21 13:33:22;;;;;;;11.73;8.40;;;16.40;29.90;;;;;;5015704;28;20065;-71
2021/03/21 13:35:52;;;;;;;12.88;8.85;;;17.00;29.40;;;;;;5015206;28;20112;-71
2021/03/21 13:38:18;;;;;;;15.13;9.63;;;17.30;29.00;;;;;;5014189;28;20092;-71